createdAt,value
2023-03-21T00:00:42.939Z,10.00
2023-03-21T00:03:09.956Z,10.00
2023-03-21T00:05:49.662Z,9.90
2023-03-21T00:08:16.529Z,10.00
2023-03-21T00:10:43.860Z,10.00
2023-03-21T00:13:15.442Z,10.00
2023-03-21T00:16:04.823Z,9.90
2023-03-21T00:18:41.633Z,9.90
2023-03-21T00:21:39.293Z,9.90
2023-03-21T00:23:56.450Z,9.90
2023-03-21T00:26:23.044Z,9.90
2023-03-21T00:28:50.456Z,9.90
2023-03-21T00:31:17.582Z,9.90
2023-03-21T00:33:44.487Z,10.00
2023-03-21T00:36:13.000Z,10.10
2023-03-21T00:38:40.300Z,10.30
2023-03-21T00:41:21.038Z,10.30
2023-03-21T00:43:51.924Z,10.30
2023-03-21T00:46:18.751Z,10.30
2023-03-21T00:48:46.254Z,10.20
2023-03-21T00:51:21.453Z,10.30
2023-03-21T00:53:51.085Z,10.30
2023-03-21T00:56:17.776Z,10.20
2023-03-21T00:58:44.384Z,10.20
2023-03-21T01:01:11.021Z,10.20
2023-03-21T01:03:42.895Z,10.20
2023-03-21T01:06:13.133Z,10.20
2023-03-21T01:08:51.627Z,10.20
2023-03-21T01:11:22.635Z,10.20
2023-03-21T01:14:07.223Z,10.30
2023-03-21T01:16:36.905Z,10.20
2023-03-21T01:19:07.169Z,10.20
2023-03-21T01:21:36.113Z,10.20
2023-03-21T01:24:02.959Z,10.10
2023-03-21T01:26:30.052Z,10.10
2023-03-21T01:28:56.753Z,10.20
2023-03-21T01:31:23.564Z,10.20
2023-03-21T01:33:50.268Z,10.20
2023-03-21T01:36:24.325Z,10.30
2023-03-21T01:38:51.741Z,10.40
2023-03-21T01:41:41.976Z,10.40
2023-03-21T01:44:16.213Z,10.30
2023-03-21T01:46:57.362Z,10.40
2023-03-21T01:49:40.836Z,10.40
2023-03-21T01:52:15.209Z,10.50
2023-03-21T01:54:44.972Z,10.50
2023-03-21T01:57:25.886Z,10.60
2023-03-21T01:59:54.681Z,10.70
2023-03-21T02:02:27.007Z,10.80
2023-03-21T02:04:58.134Z,10.70
2023-03-21T02:07:35.654Z,10.70
2023-03-21T02:10:09.819Z,10.60
2023-03-21T02:12:36.492Z,10.70
2023-03-21T02:15:03.531Z,10.80
2023-03-21T02:17:32.909Z,10.70
2023-03-21T02:20:25.146Z,10.70
2023-03-21T02:23:16.056Z,10.70
2023-03-21T02:26:41.183Z,10.70
2023-03-21T02:29:29.143Z,10.70
2023-03-21T02:32:31.546Z,10.70
2023-03-21T02:35:37.158Z,10.70
2023-03-21T02:38:22.444Z,10.50
2023-03-21T02:41:18.421Z,10.30
2023-03-21T02:44:21.027Z,10.30
2023-03-21T02:47:05.481Z,10.30
2023-03-21T02:50:12.724Z,10.30
2023-03-21T02:52:41.446Z,10.30
2023-03-21T02:55:15.465Z,10.20
2023-03-21T02:57:45.373Z,10.10
2023-03-21T03:00:18.872Z,10.10
2023-03-21T03:02:46.010Z,10.20
2023-03-21T03:05:24.338Z,10.20
2023-03-21T03:08:12.487Z,10.20
2023-03-21T03:11:05.754Z,10.30
2023-03-21T03:13:46.028Z,10.30
2023-03-21T03:16:28.576Z,10.40
2023-03-21T03:19:03.211Z,10.40
2023-03-21T03:21:38.119Z,10.50
2023-03-21T03:24:16.684Z,10.50
2023-03-21T03:27:09.555Z,10.60
2023-03-21T03:29:40.617Z,10.60
2023-03-21T03:32:15.850Z,10.60
2023-03-21T03:34:49.527Z,10.60
2023-03-21T03:37:20.353Z,10.70
2023-03-21T03:40:10.593Z,10.70
2023-03-21T03:42:49.378Z,10.80
2023-03-21T03:45:16.922Z,10.80
2023-03-21T03:47:56.756Z,10.90
2023-03-21T03:50:29.118Z,10.90
2023-03-21T03:53:18.954Z,10.90
2023-03-21T03:55:47.367Z,10.90
2023-03-21T03:58:23.606Z,10.90
2023-03-21T04:00:52.505Z,11.00
2023-03-21T04:03:19.425Z,11.00
2023-03-21T04:05:46.569Z,11.00
2023-03-21T04:08:15.311Z,11.00
2023-03-21T04:10:42.716Z,11.00
2023-03-21T04:13:09.736Z,11.30
2023-03-21T04:15:36.511Z,11.00
2023-03-21T04:18:03.440Z,11.00
2023-03-21T04:20:36.980Z,11.00
2023-03-21T04:23:04.867Z,11.00
2023-03-21T04:25:34.794Z,11.00
2023-03-21T04:28:01.694Z,11.00
2023-03-21T04:30:28.387Z,11.00
2023-03-21T04:32:56.847Z,10.90
2023-03-21T04:35:24.817Z,10.90
2023-03-21T04:37:51.651Z,10.90
2023-03-21T04:40:18.863Z,10.90
2023-03-21T04:42:47.384Z,10.90
2023-03-21T04:45:15.615Z,10.90
2023-03-21T04:47:42.676Z,10.90
2023-03-21T04:50:10.886Z,10.90
2023-03-21T04:52:37.557Z,10.90
2023-03-21T04:55:04.669Z,10.90
2023-03-21T04:57:31.293Z,10.90
2023-03-21T04:59:57.950Z,10.80
2023-03-21T05:02:24.616Z,10.80
2023-03-21T05:04:51.288Z,10.80
2023-03-21T05:07:17.996Z,10.80
2023-03-21T05:09:44.661Z,10.80
2023-03-21T05:12:11.330Z,10.80
2023-03-21T05:14:37.983Z,10.90
2023-03-21T05:17:05.264Z,10.90
2023-03-21T05:19:36.104Z,10.80
2023-03-21T05:22:05.794Z,10.80
2023-03-21T05:24:33.308Z,10.80
2023-03-21T05:27:03.622Z,10.70
2023-03-21T05:29:31.492Z,10.70
2023-03-21T05:32:01.459Z,10.60
2023-03-21T05:34:28.838Z,10.60
2023-03-21T05:36:55.621Z,10.60
2023-03-21T05:39:22.421Z,10.60
2023-03-21T05:41:49.075Z,10.60
2023-03-21T05:44:15.997Z,10.60
2023-03-21T05:46:43.333Z,10.60
2023-03-21T05:49:11.303Z,10.70
2023-03-21T05:51:37.992Z,10.70
2023-03-21T05:54:04.754Z,10.70
2023-03-21T05:56:31.414Z,10.70
2023-03-21T05:58:58.051Z,10.60
2023-03-21T06:01:24.845Z,10.60
2023-03-21T06:03:51.723Z,10.50
2023-03-21T06:06:18.427Z,10.50
2023-03-21T06:08:45.461Z,10.50
2023-03-21T06:11:27.213Z,10.50
2023-03-21T06:13:53.944Z,10.50
2023-03-21T06:16:20.739Z,10.50
2023-03-21T06:18:47.419Z,10.60
2023-03-21T06:21:14.142Z,10.60
2023-03-21T06:23:40.909Z,10.60
2023-03-21T06:26:07.754Z,10.60
2023-03-21T06:28:34.526Z,10.60
2023-03-21T06:31:01.233Z,10.60
2023-03-21T06:33:27.969Z,10.60
2023-03-21T06:35:56.120Z,10.60
2023-03-21T06:38:23.122Z,10.70
2023-03-21T06:40:50.180Z,10.70
2023-03-21T06:43:16.904Z,10.70
2023-03-21T06:45:44.474Z,10.70
2023-03-21T06:48:11.391Z,10.70
2023-03-21T06:50:38.120Z,10.70
2023-03-21T06:53:04.836Z,10.70
2023-03-21T06:55:31.684Z,10.70
2023-03-21T06:57:58.357Z,10.70
2023-03-21T07:00:25.272Z,10.70
2023-03-21T07:02:51.986Z,10.70
2023-03-21T07:05:18.588Z,10.70
2023-03-21T07:07:45.564Z,10.70
2023-03-21T07:10:12.511Z,10.70
2023-03-21T07:12:39.266Z,10.70
2023-03-21T07:15:07.344Z,10.70
2023-03-21T07:17:34.102Z,10.70
2023-03-21T07:20:00.858Z,10.70
2023-03-21T07:22:27.554Z,10.70
2023-03-21T07:25:04.259Z,10.80
2023-03-21T07:27:31.576Z,10.80
2023-03-21T07:29:58.259Z,10.80
2023-03-21T07:32:29.733Z,10.80
2023-03-21T07:34:56.694Z,10.80
2023-03-21T07:37:23.912Z,10.80
2023-03-21T07:39:51.307Z,10.70
2023-03-21T07:42:18.249Z,10.70
2023-03-21T07:44:45.007Z,10.80
2023-03-21T07:47:11.655Z,10.80
2023-03-21T07:49:38.490Z,10.90
2023-03-21T07:52:06.708Z,10.90
2023-03-21T07:54:33.584Z,11.00
2023-03-21T07:57:00.983Z,11.10
2023-03-21T07:59:27.604Z,11.30
2023-03-21T08:01:54.273Z,11.30
2023-03-21T08:04:21.093Z,11.30
2023-03-21T08:06:47.965Z,11.40
2023-03-21T08:09:14.967Z,11.40
2023-03-21T08:11:41.588Z,11.40
2023-03-21T08:14:08.313Z,11.40
2023-03-21T08:16:34.946Z,11.40
2023-03-21T08:19:01.605Z,11.50
2023-03-21T08:21:28.414Z,11.50
2023-03-21T08:23:55.158Z,11.40
2023-03-21T08:26:25.391Z,11.40
2023-03-21T08:28:52.319Z,11.40
2023-03-21T08:31:21.369Z,11.40
2023-03-21T08:33:51.036Z,11.50
2023-03-21T08:36:17.740Z,11.50
2023-03-21T08:38:46.018Z,11.60
2023-03-21T08:41:12.685Z,11.70
2023-03-21T08:43:39.315Z,11.80
2023-03-21T08:46:06.456Z,11.80
2023-03-21T08:48:33.303Z,11.80
2023-03-21T08:51:01.306Z,11.80
2023-03-21T08:53:28.024Z,11.90
2023-03-21T08:55:54.696Z,11.90
2023-03-21T08:58:22.253Z,11.90
2023-03-21T09:00:48.877Z,11.80
2023-03-21T09:03:16.851Z,11.90
2023-03-21T09:05:45.475Z,12.00
2023-03-21T09:08:16.931Z,12.00
2023-03-21T09:10:43.563Z,12.00
2023-03-21T09:13:10.426Z,12.00
2023-03-21T09:15:37.424Z,12.00
2023-03-21T09:18:13.105Z,12.00
2023-03-21T09:20:40.399Z,12.10
2023-03-21T09:23:07.423Z,12.20
2023-03-21T09:25:34.066Z,12.30
2023-03-21T09:28:01.931Z,12.30
2023-03-21T09:30:30.167Z,12.30
2023-03-21T09:32:56.947Z,12.40
2023-03-21T09:35:24.711Z,12.40
2023-03-21T09:37:51.492Z,12.40
2023-03-21T09:40:31.811Z,12.40
2023-03-21T09:43:18.338Z,12.40
2023-03-21T09:45:57.157Z,12.50
2023-03-21T09:48:58.517Z,12.50
2023-03-21T09:51:31.254Z,12.60
2023-03-21T09:54:02.461Z,12.60
2023-03-21T09:56:30.296Z,12.60
2023-03-21T09:58:59.179Z,12.60
2023-03-21T10:01:41.359Z,12.60
2023-03-21T10:04:12.403Z,12.70
2023-03-21T10:06:42.763Z,12.80
2023-03-21T10:09:22.835Z,12.90
2023-03-21T10:11:54.367Z,12.90
2023-03-21T10:14:43.823Z,13.00
2023-03-21T10:17:16.345Z,13.00
2023-03-21T10:19:46.449Z,13.10
2023-03-21T10:24:53.936Z,13.20
2023-03-21T10:27:21.116Z,13.30
2023-03-21T10:29:47.763Z,13.40
2023-03-21T10:32:17.807Z,13.50
2023-03-21T10:37:28.491Z,13.40
2023-03-21T10:39:56.223Z,13.40
2023-03-21T10:42:29.250Z,13.50
2023-03-21T10:44:57.825Z,13.60
2023-03-21T10:47:32.267Z,13.60
2023-03-21T10:50:08.529Z,13.60
2023-03-21T10:52:41.563Z,13.50
2023-03-21T10:55:21.373Z,13.40
2023-03-21T10:57:48.912Z,13.50
2023-03-21T11:00:21.994Z,13.60
2023-03-21T11:02:50.453Z,13.70
2023-03-21T11:05:25.287Z,13.70
2023-03-21T11:08:00.540Z,13.80
2023-03-21T11:10:36.863Z,13.90
2023-03-21T11:13:16.548Z,13.80
2023-03-21T11:15:54.265Z,13.80
2023-03-21T11:18:26.546Z,13.90
2023-03-21T11:21:02.106Z,13.90
2023-03-21T11:23:35.345Z,14.00
2023-03-21T11:26:02.969Z,14.00
2023-03-21T11:28:37.418Z,14.10
2023-03-21T11:31:05.825Z,14.20
2023-03-21T11:33:37.342Z,14.20
2023-03-21T11:36:11.100Z,14.20
2023-03-21T11:38:39.815Z,14.10
2023-03-21T11:41:07.542Z,14.20
2023-03-21T11:43:39.138Z,14.20
2023-03-21T11:46:13.681Z,14.30
2023-03-21T11:48:46.891Z,14.30
2023-03-21T11:51:13.510Z,14.30
2023-03-21T11:53:59.830Z,14.40
2023-03-21T11:56:36.406Z,14.50
2023-03-21T11:59:29.676Z,14.50
2023-03-21T12:02:08.994Z,14.50
2023-03-21T12:04:52.754Z,14.60
2023-03-21T12:07:39.530Z,14.70
2023-03-21T12:10:32.425Z,14.70
2023-03-21T12:13:26.866Z,14.80
2023-03-21T12:15:55.451Z,14.80
2023-03-21T12:18:51.198Z,14.70
2023-03-21T12:21:41.139Z,14.70
2023-03-21T12:24:16.846Z,14.80
2023-03-21T12:26:59.260Z,14.90
2023-03-21T12:29:55.297Z,14.90
2023-03-21T12:32:24.695Z,14.90
2023-03-21T12:35:05.912Z,14.90
2023-03-21T12:37:38.555Z,14.90
2023-03-21T12:40:35.422Z,14.90
2023-03-21T12:43:37.463Z,15.00
2023-03-21T12:46:24.403Z,15.10
2023-03-21T12:49:02.839Z,15.30
2023-03-21T12:51:36.276Z,15.30
2023-03-21T12:54:17.783Z,15.30
2023-03-21T12:56:55.547Z,15.30
2023-03-21T12:59:46.529Z,15.40
2023-03-21T13:02:19.378Z,15.40
2023-03-21T13:05:00.166Z,15.40
2023-03-21T13:07:31.051Z,15.50
2023-03-21T13:09:59.389Z,15.50
2023-03-21T13:12:33.089Z,15.60
2023-03-21T13:15:07.903Z,15.50
2023-03-21T13:17:44.229Z,15.60
2023-03-21T13:20:39.821Z,15.70
2023-03-21T13:23:13.220Z,15.70
2023-03-21T13:26:22.405Z,15.80
2023-03-21T13:29:12.121Z,15.90
2023-03-21T13:32:02.166Z,16.00
2023-03-21T13:34:48.756Z,16.00
2023-03-21T13:37:24.290Z,16.10
2023-03-21T13:40:04.256Z,16.10
2023-03-21T13:42:56.088Z,16.20
2023-03-21T13:45:58.113Z,16.20
2023-03-21T13:49:17.114Z,16.30
2023-03-21T13:51:59.040Z,16.20
2023-03-21T13:54:41.824Z,16.20
2023-03-21T13:57:48.438Z,16.30
2023-03-21T14:00:23.453Z,16.40
2023-03-21T14:03:12.858Z,16.50
2023-03-21T14:05:48.996Z,16.60
2023-03-21T14:08:39.183Z,16.70
2023-03-21T14:11:09.864Z,16.80
2023-03-21T14:13:48.258Z,16.90
2023-03-21T14:17:16.467Z,17.00
2023-03-21T14:19:43.158Z,17.10
2023-03-21T14:22:13.165Z,17.00
2023-03-21T14:24:41.204Z,16.80
2023-03-21T14:27:09.057Z,16.60
2023-03-21T14:29:35.822Z,16.50
2023-03-21T14:32:06.799Z,16.40
2023-03-21T14:34:35.689Z,16.40
2023-03-21T14:37:02.359Z,16.40
2023-03-21T14:39:33.090Z,16.40
2023-03-21T14:42:08.022Z,16.50
2023-03-21T14:44:57.855Z,16.60
2023-03-21T14:47:27.858Z,16.70
2023-03-21T14:49:56.324Z,16.70
2023-03-21T14:52:34.236Z,16.60
2023-03-21T14:55:05.338Z,16.50
2023-03-21T14:57:33.318Z,16.50
2023-03-21T15:00:10.584Z,16.50
2023-03-21T15:02:40.237Z,16.50
2023-03-21T15:05:32.112Z,16.30
2023-03-21T15:07:58.749Z,16.30
2023-03-21T15:10:28.163Z,16.30
2023-03-21T15:12:58.008Z,16.40
2023-03-21T15:15:27.605Z,16.40
2023-03-21T15:17:56.379Z,16.30
2023-03-21T15:20:28.461Z,16.30
2023-03-21T15:23:02.202Z,16.30
2023-03-21T15:25:34.264Z,16.20
2023-03-21T15:28:01.914Z,16.10
2023-03-21T15:30:30.927Z,16.00
2023-03-21T15:33:06.155Z,16.00
2023-03-21T15:35:43.026Z,16.00
2023-03-21T15:38:24.583Z,16.00
2023-03-21T15:40:52.068Z,16.00
2023-03-21T15:43:20.341Z,16.00
2023-03-21T15:45:55.517Z,15.90
2023-03-21T15:48:33.893Z,15.90
2023-03-21T15:51:04.938Z,15.90
2023-03-21T15:53:37.097Z,15.90
2023-03-21T15:56:06.390Z,15.90
2023-03-21T15:58:36.364Z,15.80
2023-03-21T16:01:07.113Z,15.90
2023-03-21T16:03:37.435Z,15.80
2023-03-21T16:06:14.340Z,15.70
2023-03-21T16:08:48.470Z,15.70
2023-03-21T16:11:23.245Z,15.60
2023-03-21T16:13:51.039Z,15.60
2023-03-21T16:16:26.329Z,15.70
2023-03-21T16:18:54.441Z,15.70
2023-03-21T16:21:27.487Z,15.60
2023-03-21T16:23:54.358Z,15.60
2023-03-21T16:26:24.593Z,15.50
2023-03-21T16:28:52.877Z,15.50
2023-03-21T16:31:25.548Z,15.50
2023-03-21T16:33:52.427Z,15.50
2023-03-21T16:36:22.109Z,15.40
2023-03-21T16:38:51.310Z,15.40
2023-03-21T16:41:18.402Z,15.40
2023-03-21T16:43:45.122Z,15.40
2023-03-21T16:46:15.505Z,15.40
2023-03-21T16:48:43.890Z,15.40
2023-03-21T16:51:18.788Z,15.40
2023-03-21T16:53:46.144Z,15.40
2023-03-21T16:56:25.582Z,15.40
2023-03-21T16:58:54.496Z,15.30
2023-03-21T17:01:25.917Z,15.30
2023-03-21T17:03:53.093Z,15.30
2023-03-21T17:06:25.340Z,15.20
2023-03-21T17:08:53.488Z,15.10
2023-03-21T17:11:22.257Z,15.10
2023-03-21T17:13:54.512Z,15.10
2023-03-21T17:16:26.558Z,15.00
2023-03-21T17:18:54.169Z,14.80
2023-03-21T17:21:23.456Z,14.70
2023-03-21T17:23:50.929Z,14.60
2023-03-21T17:26:29.255Z,14.50
2023-03-21T17:28:59.832Z,14.30
2023-03-21T17:31:28.008Z,14.20
2023-03-21T17:33:54.630Z,14.10
2023-03-21T17:36:35.504Z,14.00
2023-03-21T17:39:04.317Z,13.90
2023-03-21T17:41:31.320Z,13.90
2023-03-21T17:43:57.945Z,13.80
2023-03-21T17:46:27.255Z,13.80
2023-03-21T17:48:54.873Z,13.80
2023-03-21T17:51:23.764Z,13.70
2023-03-21T17:53:51.008Z,13.70
2023-03-21T17:56:27.125Z,13.70
2023-03-21T17:58:54.290Z,13.70
2023-03-21T18:01:21.309Z,13.60
2023-03-21T18:03:47.956Z,13.60
2023-03-21T18:06:24.198Z,13.60
2023-03-21T18:08:52.998Z,13.70
2023-03-21T18:11:21.317Z,13.80
2023-03-21T18:13:48.544Z,13.80
2023-03-21T18:16:17.977Z,13.90
2023-03-21T18:18:46.398Z,13.90
2023-03-21T18:21:14.472Z,14.00
2023-03-21T18:23:41.535Z,14.00
2023-03-21T18:26:09.674Z,14.10
2023-03-21T18:28:41.314Z,14.00
2023-03-21T18:31:16.622Z,14.00
2023-03-21T18:33:47.299Z,13.90
2023-03-21T18:36:24.102Z,13.90
2023-03-21T18:38:51.468Z,13.90
2023-03-21T18:41:22.670Z,14.00
2023-03-21T18:44:04.655Z,14.00
2023-03-21T18:46:36.886Z,14.10
2023-03-21T18:49:33.545Z,14.10
2023-03-21T18:51:52.473Z,14.10
2023-03-21T18:54:19.297Z,14.10
2023-03-21T18:59:38.847Z,14.10
2023-03-21T19:02:05.971Z,14.10
2023-03-21T19:04:33.698Z,14.10
2023-03-21T19:07:00.403Z,14.10
2023-03-21T19:09:31.568Z,14.10
2023-03-21T19:11:59.056Z,14.10
2023-03-21T19:14:25.890Z,14.10
2023-03-21T19:17:47.242Z,14.10
2023-03-21T19:19:41.720Z,14.20
2023-03-21T19:22:08.421Z,14.20
2023-03-21T19:24:38.142Z,14.20
2023-03-21T19:27:04.806Z,14.20
2023-03-21T19:29:32.102Z,14.20
2023-03-21T19:31:59.879Z,14.30
2023-03-21T19:34:28.736Z,14.30
2023-03-21T19:36:57.273Z,14.30
2023-03-21T19:39:25.033Z,14.20
2023-03-21T19:41:55.366Z,14.30
2023-03-21T19:44:28.252Z,14.20
2023-03-21T19:46:54.882Z,14.20
2023-03-21T19:49:28.552Z,14.30
2023-03-21T19:52:03.614Z,14.20
2023-03-21T19:54:30.408Z,14.20
2023-03-21T19:56:58.142Z,14.20
2023-03-21T19:59:24.841Z,14.10
2023-03-21T20:01:56.492Z,14.10
2023-03-21T20:04:25.522Z,14.10
2023-03-21T20:06:56.944Z,13.90
2023-03-21T20:09:50.141Z,13.90
2023-03-21T20:12:11.552Z,13.80
2023-03-21T20:14:38.372Z,13.60
2023-03-21T20:17:05.052Z,13.50
2023-03-21T20:19:31.754Z,13.50
2023-03-21T20:22:01.938Z,13.50
2023-03-21T20:24:29.341Z,13.50
2023-03-21T20:26:57.330Z,13.60
2023-03-21T20:32:10.999Z,13.70
2023-03-21T20:34:38.217Z,13.80
2023-03-21T20:37:06.121Z,13.90
2023-03-21T20:39:33.182Z,13.90
2023-03-21T20:41:59.794Z,14.10
2023-03-21T20:44:57.192Z,14.00
2023-03-21T20:47:13.636Z,14.00
2023-03-21T20:49:40.765Z,14.00
2023-03-21T20:52:54.470Z,14.10
2023-03-21T20:54:57.371Z,14.00
2023-03-21T20:57:27.240Z,13.80
2023-03-21T20:59:57.658Z,13.80
2023-03-21T21:02:24.736Z,13.80
2023-03-21T21:05:21.869Z,13.70
2023-03-21T21:07:41.752Z,13.50
2023-03-21T21:10:14.220Z,13.40
2023-03-21T21:12:44.942Z,13.40
2023-03-21T21:15:14.161Z,13.40
2023-03-21T21:18:04.029Z,13.50
2023-03-21T21:20:27.754Z,13.40
2023-03-21T21:23:00.297Z,13.50
2023-03-21T21:25:30.831Z,13.50
2023-03-21T21:27:57.707Z,13.50
2023-03-21T21:30:24.435Z,13.40
2023-03-21T21:32:51.124Z,13.40
2023-03-21T21:35:19.475Z,13.40
2023-03-21T21:37:46.206Z,13.30
2023-03-21T21:40:15.532Z,13.30
2023-03-21T21:42:43.653Z,13.30
2023-03-21T21:45:11.807Z,13.30
2023-03-21T21:47:39.010Z,13.30
2023-03-21T21:50:06.416Z,13.20
2023-03-21T21:52:33.280Z,13.30
2023-03-21T21:55:01.903Z,13.30
2023-03-21T21:57:30.396Z,13.40
2023-03-21T22:00:01.955Z,13.50
2023-03-21T22:02:28.611Z,13.50
2023-03-21T22:04:56.871Z,13.60
2023-03-21T22:07:27.291Z,13.60
2023-03-21T22:09:59.155Z,13.70
2023-03-21T22:12:25.901Z,13.70
2023-03-21T22:14:52.696Z,13.70
2023-03-21T22:17:19.356Z,13.70
2023-03-21T22:19:58.971Z,13.70
2023-03-21T22:22:31.239Z,13.70
2023-03-21T22:24:57.947Z,13.70
2023-03-21T22:27:24.652Z,13.80
2023-03-21T22:29:51.366Z,13.70
2023-03-21T22:32:19.005Z,13.70
2023-03-21T22:34:45.647Z,13.70
2023-03-21T22:37:12.321Z,13.70
2023-03-21T22:39:39.123Z,13.70
2023-03-21T22:42:05.925Z,13.70
2023-03-21T22:44:35.886Z,13.70
2023-03-21T22:47:08.614Z,13.70
2023-03-21T22:49:36.074Z,13.60
2023-03-21T22:52:03.786Z,13.60
2023-03-21T22:54:30.859Z,13.50
2023-03-21T22:56:57.574Z,13.50
2023-03-21T22:59:25.580Z,13.50
2023-03-21T23:01:52.477Z,13.40
2023-03-21T23:04:19.193Z,13.50
2023-03-21T23:06:46.323Z,13.40
2023-03-21T23:09:13.376Z,13.50
2023-03-21T23:11:40.492Z,13.50
2023-03-21T23:14:08.868Z,13.50
2023-03-21T23:16:38.074Z,13.50
2023-03-21T23:19:05.710Z,13.60
2023-03-21T23:21:34.455Z,13.50
2023-03-21T23:24:01.264Z,13.50
2023-03-21T23:26:28.066Z,13.50
2023-03-21T23:28:54.728Z,13.60
2023-03-21T23:31:23.879Z,13.50
2023-03-21T23:33:51.116Z,13.50
2023-03-21T23:36:19.675Z,13.50
2023-03-21T23:38:46.343Z,13.50
2023-03-21T23:41:21.114Z,13.50
2023-03-21T23:43:48.311Z,13.50
2023-03-21T23:46:16.410Z,13.50
2023-03-21T23:48:44.254Z,13.50
2023-03-21T23:51:12.400Z,13.50
2023-03-21T23:53:39.314Z,13.50
2023-03-21T23:56:19.844Z,13.50
2023-03-21T23:58:47.648Z,13.50
